sensor_id;sensor_type;location;lat;lon;timestamp;temperature;humidity
15615;DHT22;7907;51.368;6.730;2023-02-01T00:00:16;7.20;99.90
15615;DHT22;7907;51.368;6.730;2023-02-01T00:03:13;7.20;99.90
15615;DHT22;7907;51.368;6.730;2023-02-01T00:05:59;7.30;99.90
15615;DHT22;7907;51.368;6.730;2023-02-01T00:11:41;7.30;99.90
15615;DHT22;7907;51.368;6.730;2023-02-01T00:14:08;7.30;99.90
15615;DHT22;7907;51.368;6.730;2023-02-01T00:16:36;7.30;99.90
15615;DHT22;7907;51.368;6.730;2023-02-01T00:25:08;7.30;99.90
15615;DHT22;7907;51.368;6.730;2023-02-01T00:27:48;7.30;99.90
15615;DHT22;7907;51.368;6.730;2023-02-01T00:31:29;7.30;99.90
15615;DHT22;7907;51.368;6.730;2023-02-01T00:33:52;7.30;99.90
15615;DHT22;7907;51.368;6.730;2023-02-01T00:36:27;7.30;99.90
15615;DHT22;7907;51.368;6.730;2023-02-01T00:39:02;7.30;99.90
15615;DHT22;7907;51.368;6.730;2023-02-01T00:42:07;7.40;99.90
15615;DHT22;7907;51.368;6.730;2023-02-01T00:45:05;7.40;99.90
15615;DHT22;7907;51.368;6.730;2023-02-01T00:47:53;7.30;99.90
15615;DHT22;7907;51.368;6.730;2023-02-01T00:50:21;7.30;99.90
15615;DHT22;7907;51.368;6.730;2023-02-01T00:55:52;7.30;99.90
15615;DHT22;7907;51.368;6.730;2023-02-01T00:58:20;7.20;99.90
15615;DHT22;7907;51.368;6.730;2023-02-01T01:06:54;7.20;99.90
15615;DHT22;7907;51.368;6.730;2023-02-01T01:09:29;7.20;99.90
15615;DHT22;7907;51.368;6.730;2023-02-01T01:11:56;7.20;99.90
15615;DHT22;7907;51.368;6.730;2023-02-01T01:14:47;7.20;99.90
15615;DHT22;7907;51.368;6.730;2023-02-01T01:17:22;7.20;99.90
15615;DHT22;7907;51.368;6.730;2023-02-01T01:20:02;7.20;99.90
15615;DHT22;7907;51.368;6.730;2023-02-01T01:22:35;7.20;99.90
15615;DHT22;7907;51.368;6.730;2023-02-01T01:25:14;7.20;99.90
15615;DHT22;7907;51.368;6.730;2023-02-01T01:30:40;7.30;99.90
15615;DHT22;7907;51.368;6.730;2023-02-01T01:33:27;7.20;99.90
15615;DHT22;7907;51.368;6.730;2023-02-01T01:39:05;7.20;99.90
15615;DHT22;7907;51.368;6.730;2023-02-01T01:41:33;7.10;99.90
15615;DHT22;7907;51.368;6.730;2023-02-01T01:47:20;7.00;99.90
15615;DHT22;7907;51.368;6.730;2023-02-01T01:49:53;7.00;99.90
15615;DHT22;7907;51.368;6.730;2023-02-01T01:53:20;7.00;99.90
15615;DHT22;7907;51.368;6.730;2023-02-01T01:55:54;7.00;99.90
15615;DHT22;7907;51.368;6.730;2023-02-01T01:58:37;6.90;99.90
15615;DHT22;7907;51.368;6.730;2023-02-01T02:01:05;6.90;99.90
15615;DHT22;7907;51.368;6.730;2023-02-01T02:04:06;6.80;99.90
15615;DHT22;7907;51.368;6.730;2023-02-01T02:07:03;6.80;99.90
15615;DHT22;7907;51.368;6.730;2023-02-01T02:09:51;6.80;99.90
15615;DHT22;7907;51.368;6.730;2023-02-01T02:12:38;6.80;99.90
15615;DHT22;7907;51.368;6.730;2023-02-01T02:15:17;6.80;99.90
15615;DHT22;7907;51.368;6.730;2023-02-01T02:18:02;6.80;99.90
15615;DHT22;7907;51.368;6.730;2023-02-01T02:27:08;6.60;99.90
15615;DHT22;7907;51.368;6.730;2023-02-01T02:36:30;6.50;99.90
15615;DHT22;7907;51.368;6.730;2023-02-01T02:39:41;6.40;99.90
15615;DHT22;7907;51.368;6.730;2023-02-01T02:45:42;6.40;99.90
15615;DHT22;7907;51.368;6.730;2023-02-01T02:48:35;6.30;99.90
15615;DHT22;7907;51.368;6.730;2023-02-01T02:51:09;6.30;99.90
15615;DHT22;7907;51.368;6.730;2023-02-01T02:53:59;6.20;99.90
15615;DHT22;7907;51.368;6.730;2023-02-01T02:56:44;6.30;99.90
15615;DHT22;7907;51.368;6.730;2023-02-01T02:59:40;6.20;99.90
15615;DHT22;7907;51.368;6.730;2023-02-01T03:02:27;6.10;99.90
15615;DHT22;7907;51.368;6.730;2023-02-01T03:05:19;6.20;99.90
15615;DHT22;7907;51.368;6.730;2023-02-01T03:07:57;6.20;99.90
15615;DHT22;7907;51.368;6.730;2023-02-01T03:10:47;6.10;99.90
15615;DHT22;7907;51.368;6.730;2023-02-01T03:13:42;6.20;99.90
15615;DHT22;7907;51.368;6.730;2023-02-01T03:16:20;6.20;99.90
15615;DHT22;7907;51.368;6.730;2023-02-01T03:19:12;6.20;99.90
15615;DHT22;7907;51.368;6.730;2023-02-01T03:21:47;6.30;99.90
15615;DHT22;7907;51.368;6.730;2023-02-01T03:24:30;6.30;99.90
15615;DHT22;7907;51.368;6.730;2023-02-01T03:27:10;6.30;99.90
15615;DHT22;7907;51.368;6.730;2023-02-01T03:32:50;6.40;99.90
15615;DHT22;7907;51.368;6.730;2023-02-01T03:35:39;6.40;99.90
15615;DHT22;7907;51.368;6.730;2023-02-01T03:38:20;6.40;99.90
15615;DHT22;7907;51.368;6.730;2023-02-01T03:40:53;6.40;99.90
15615;DHT22;7907;51.368;6.730;2023-02-01T03:43:23;6.40;99.90
15615;DHT22;7907;51.368;6.730;2023-02-01T03:46:12;6.50;99.90
15615;DHT22;7907;51.368;6.730;2023-02-01T03:48:45;6.40;99.90
15615;DHT22;7907;51.368;6.730;2023-02-01T03:51:13;6.50;99.90
15615;DHT22;7907;51.368;6.730;2023-02-01T03:53:44;6.50;99.90
15615;DHT22;7907;51.368;6.730;2023-02-01T03:56:21;6.50;99.90
15615;DHT22;7907;51.368;6.730;2023-02-01T03:58:52;6.50;99.90
15615;DHT22;7907;51.368;6.730;2023-02-01T04:01:33;6.50;99.90
15615;DHT22;7907;51.368;6.730;2023-02-01T04:04:05;6.60;99.90
15615;DHT22;7907;51.368;6.730;2023-02-01T04:06:33;6.50;99.90
15615;DHT22;7907;51.368;6.730;2023-02-01T04:09:02;6.50;99.90
15615;DHT22;7907;51.368;6.730;2023-02-01T04:15:33;6.40;99.90
15615;DHT22;7907;51.368;6.730;2023-02-01T04:17:52;6.40;99.90
15615;DHT22;7907;51.368;6.730;2023-02-01T04:20:34;6.30;99.90
15615;DHT22;7907;51.368;6.730;2023-02-01T04:23:05;6.30;99.90
15615;DHT22;7907;51.368;6.730;2023-02-01T04:25:37;6.30;99.90
15615;DHT22;7907;51.368;6.730;2023-02-01T04:28:04;6.20;99.90
15615;DHT22;7907;51.368;6.730;2023-02-01T04:30:37;6.20;99.90
15615;DHT22;7907;51.368;6.730;2023-02-01T04:33:07;6.20;99.90
15615;DHT22;7907;51.368;6.730;2023-02-01T04:35:35;6.20;99.90
15615;DHT22;7907;51.368;6.730;2023-02-01T04:38:02;6.20;99.90
15615;DHT22;7907;51.368;6.730;2023-02-01T04:40:30;6.20;99.90
15615;DHT22;7907;51.368;6.730;2023-02-01T04:43:07;6.30;99.90
15615;DHT22;7907;51.368;6.730;2023-02-01T04:45:39;6.30;99.90
15615;DHT22;7907;51.368;6.730;2023-02-01T04:48:09;6.40;99.90
15615;DHT22;7907;51.368;6.730;2023-02-01T04:50:38;6.30;99.90
15615;DHT22;7907;51.368;6.730;2023-02-01T04:53:19;6.40;99.90
15615;DHT22;7907;51.368;6.730;2023-02-01T04:58:20;6.40;99.90
15615;DHT22;7907;51.368;6.730;2023-02-01T04:59:16;6.40;99.90
15615;DHT22;7907;51.368;6.730;2023-02-01T05:01:55;6.40;99.90
15615;DHT22;7907;51.368;6.730;2023-02-01T05:08:05;6.40;99.90
15615;DHT22;7907;51.368;6.730;2023-02-01T05:10:37;6.40;99.90
15615;DHT22;7907;51.368;6.730;2023-02-01T05:13:04;6.30;99.90
15615;DHT22;7907;51.368;6.730;2023-02-01T05:15:53;6.30;99.90
15615;DHT22;7907;51.368;6.730;2023-02-01T05:18:21;6.30;99.90
15615;DHT22;7907;51.368;6.730;2023-02-01T05:20:52;6.20;99.90
15615;DHT22;7907;51.368;6.730;2023-02-01T05:23:27;6.20;99.90
15615;DHT22;7907;51.368;6.730;2023-02-01T05:25:58;6.20;99.90
15615;DHT22;7907;51.368;6.730;2023-02-01T05:28:28;6.10;99.90
15615;DHT22;7907;51.368;6.730;2023-02-01T05:30:58;6.20;99.90
15615;DHT22;7907;51.368;6.730;2023-02-01T05:36:30;6.10;99.90
15615;DHT22;7907;51.368;6.730;2023-02-01T05:39:08;6.10;99.90
15615;DHT22;7907;51.368;6.730;2023-02-01T05:41:38;6.10;99.90
15615;DHT22;7907;51.368;6.730;2023-02-01T05:44:07;6.10;99.90
15615;DHT22;7907;51.368;6.730;2023-02-01T05:46:40;6.00;99.90
15615;DHT22;7907;51.368;6.730;2023-02-01T05:49:10;6.00;99.90
15615;DHT22;7907;51.368;6.730;2023-02-01T05:51:41;6.00;99.90
15615;DHT22;7907;51.368;6.730;2023-02-01T05:54:43;5.90;99.90
15615;DHT22;7907;51.368;6.730;2023-02-01T05:57:33;6.00;99.90
15615;DHT22;7907;51.368;6.730;2023-02-01T06:00:39;5.90;99.90
15615;DHT22;7907;51.368;6.730;2023-02-01T06:03:44;5.90;99.90
15615;DHT22;7907;51.368;6.730;2023-02-01T06:06:54;5.90;99.90
15615;DHT22;7907;51.368;6.730;2023-02-01T06:09:24;5.90;99.90
15615;DHT22;7907;51.368;6.730;2023-02-01T06:11:58;5.80;99.90
15615;DHT22;7907;51.368;6.730;2023-02-01T06:14:26;5.90;99.90
15615;DHT22;7907;51.368;6.730;2023-02-01T06:16:57;5.90;99.90
15615;DHT22;7907;51.368;6.730;2023-02-01T06:19:42;5.90;99.90
15615;DHT22;7907;51.368;6.730;2023-02-01T06:22:11;6.00;99.90
15615;DHT22;7907;51.368;6.730;2023-02-01T06:24:38;6.00;99.90
15615;DHT22;7907;51.368;6.730;2023-02-01T06:27:08;6.10;99.90
15615;DHT22;7907;51.368;6.730;2023-02-01T06:29:36;6.20;99.90
15615;DHT22;7907;51.368;6.730;2023-02-01T06:32:04;6.10;99.90
15615;DHT22;7907;51.368;6.730;2023-02-01T06:34:47;6.20;99.90
15615;DHT22;7907;51.368;6.730;2023-02-01T06:37:33;6.20;99.90
15615;DHT22;7907;51.368;6.730;2023-02-01T06:40:19;6.30;99.90
15615;DHT22;7907;51.368;6.730;2023-02-01T06:43:04;6.30;99.90
15615;DHT22;7907;51.368;6.730;2023-02-01T06:45:31;6.30;99.90
15615;DHT22;7907;51.368;6.730;2023-02-01T06:48:01;6.40;99.90
15615;DHT22;7907;51.368;6.730;2023-02-01T06:50:31;6.30;99.90
15615;DHT22;7907;51.368;6.730;2023-02-01T06:52:58;6.40;99.90
15615;DHT22;7907;51.368;6.730;2023-02-01T06:55:26;6.40;99.90
15615;DHT22;7907;51.368;6.730;2023-02-01T06:57:56;6.50;99.90
15615;DHT22;7907;51.368;6.730;2023-02-01T07:00:32;6.50;99.90
15615;DHT22;7907;51.368;6.730;2023-02-01T07:03:00;6.50;99.90
15615;DHT22;7907;51.368;6.730;2023-02-01T07:05:32;6.50;99.90
15615;DHT22;7907;51.368;6.730;2023-02-01T07:08:04;6.60;99.90
15615;DHT22;7907;51.368;6.730;2023-02-01T07:13:56;6.60;99.90
15615;DHT22;7907;51.368;6.730;2023-02-01T07:16:38;6.60;99.90
15615;DHT22;7907;51.368;6.730;2023-02-01T07:19:05;6.70;99.90
15615;DHT22;7907;51.368;6.730;2023-02-01T07:21:36;6.60;99.90
15615;DHT22;7907;51.368;6.730;2023-02-01T07:24:12;6.70;99.90
15615;DHT22;7907;51.368;6.730;2023-02-01T07:26:42;6.60;99.90
15615;DHT22;7907;51.368;6.730;2023-02-01T07:29:25;6.70;99.90
15615;DHT22;7907;51.368;6.730;2023-02-01T07:31:54;6.70;99.90
15615;DHT22;7907;51.368;6.730;2023-02-01T07:34:21;6.70;99.90
15615;DHT22;7907;51.368;6.730;2023-02-01T07:36:52;6.70;99.90
15615;DHT22;7907;51.368;6.730;2023-02-01T07:39:22;6.70;99.90
15615;DHT22;7907;51.368;6.730;2023-02-01T07:41:50;6.70;99.90
15615;DHT22;7907;51.368;6.730;2023-02-01T07:44:19;6.70;99.90
15615;DHT22;7907;51.368;6.730;2023-02-01T07:47:13;6.80;99.90
15615;DHT22;7907;51.368;6.730;2023-02-01T07:49:42;6.80;99.90
15615;DHT22;7907;51.368;6.730;2023-02-01T07:52:12;6.90;99.90
15615;DHT22;7907;51.368;6.730;2023-02-01T07:54:45;6.80;99.90
15615;DHT22;7907;51.368;6.730;2023-02-01T07:57:17;6.90;99.90
15615;DHT22;7907;51.368;6.730;2023-02-01T07:59:44;6.90;99.90
15615;DHT22;7907;51.368;6.730;2023-02-01T08:02:32;6.90;99.90
15615;DHT22;7907;51.368;6.730;2023-02-01T08:05:04;6.90;99.90
15615;DHT22;7907;51.368;6.730;2023-02-01T08:07:35;6.90;99.90
15615;DHT22;7907;51.368;6.730;2023-02-01T08:10:07;6.90;99.90
15615;DHT22;7907;51.368;6.730;2023-02-01T08:15:47;6.90;99.90
15615;DHT22;7907;51.368;6.730;2023-02-01T08:18:15;6.90;99.90
15615;DHT22;7907;51.368;6.730;2023-02-01T08:20:43;6.90;99.90
15615;DHT22;7907;51.368;6.730;2023-02-01T08:23:15;7.00;99.90
15615;DHT22;7907;51.368;6.730;2023-02-01T08:26:19;6.90;99.90
15615;DHT22;7907;51.368;6.730;2023-02-01T08:29:02;7.00;99.90
15615;DHT22;7907;51.368;6.730;2023-02-01T08:31:48;7.00;99.90
15615;DHT22;7907;51.368;6.730;2023-02-01T08:34:19;7.00;99.90
15615;DHT22;7907;51.368;6.730;2023-02-01T08:36:52;7.00;99.90
15615;DHT22;7907;51.368;6.730;2023-02-01T08:39:49;7.00;99.90
15615;DHT22;7907;51.368;6.730;2023-02-01T08:42:19;7.00;99.90
15615;DHT22;7907;51.368;6.730;2023-02-01T08:45:05;7.00;99.90
15615;DHT22;7907;51.368;6.730;2023-02-01T08:47:45;7.00;99.90
15615;DHT22;7907;51.368;6.730;2023-02-01T08:50:26;7.00;99.90
15615;DHT22;7907;51.368;6.730;2023-02-01T08:52:54;7.00;99.90
15615;DHT22;7907;51.368;6.730;2023-02-01T08:55:31;7.10;99.90
15615;DHT22;7907;51.368;6.730;2023-02-01T08:58:08;7.10;99.90
15615;DHT22;7907;51.368;6.730;2023-02-01T09:00:39;7.20;99.90
15615;DHT22;7907;51.368;6.730;2023-02-01T09:03:09;7.10;99.90
15615;DHT22;7907;51.368;6.730;2023-02-01T09:05:40;7.10;99.90
15615;DHT22;7907;51.368;6.730;2023-02-01T09:08:07;7.10;99.90
15615;DHT22;7907;51.368;6.730;2023-02-01T09:10:38;7.10;99.90
15615;DHT22;7907;51.368;6.730;2023-02-01T09:13:14;7.10;99.90
15615;DHT22;7907;51.368;6.730;2023-02-01T09:15:41;7.10;99.90
15615;DHT22;7907;51.368;6.730;2023-02-01T09:18:11;7.10;99.90
15615;DHT22;7907;51.368;6.730;2023-02-01T09:20:49;7.10;99.90
15615;DHT22;7907;51.368;6.730;2023-02-01T09:23:20;7.00;99.90
15615;DHT22;7907;51.368;6.730;2023-02-01T09:25:59;7.00;99.90
15615;DHT22;7907;51.368;6.730;2023-02-01T09:28:26;7.10;99.90
15615;DHT22;7907;51.368;6.730;2023-02-01T09:30:56;7.10;99.90
15615;DHT22;7907;51.368;6.730;2023-02-01T09:33:53;7.20;99.90
15615;DHT22;7907;51.368;6.730;2023-02-01T09:36:21;7.20;99.90
15615;DHT22;7907;51.368;6.730;2023-02-01T09:38:52;7.20;99.90
15615;DHT22;7907;51.368;6.730;2023-02-01T09:41:30;7.20;99.90
15615;DHT22;7907;51.368;6.730;2023-02-01T09:44:05;7.20;99.90
15615;DHT22;7907;51.368;6.730;2023-02-01T09:46:34;7.30;99.90
15615;DHT22;7907;51.368;6.730;2023-02-01T09:49:04;7.30;99.90
15615;DHT22;7907;51.368;6.730;2023-02-01T09:51:37;7.30;99.90
15615;DHT22;7907;51.368;6.730;2023-02-01T09:54:12;7.30;99.90
15615;DHT22;7907;51.368;6.730;2023-02-01T09:56:47;7.30;99.90
15615;DHT22;7907;51.368;6.730;2023-02-01T09:59:29;7.30;99.90
15615;DHT22;7907;51.368;6.730;2023-02-01T10:02:20;7.30;99.90
15615;DHT22;7907;51.368;6.730;2023-02-01T10:04:52;7.40;99.90
15615;DHT22;7907;51.368;6.730;2023-02-01T10:07:32;7.40;99.90
15615;DHT22;7907;51.368;6.730;2023-02-01T10:10:13;7.50;99.90
15615;DHT22;7907;51.368;6.730;2023-02-01T10:16:16;7.50;99.90
15615;DHT22;7907;51.368;6.730;2023-02-01T10:19:10;7.50;99.90
15615;DHT22;7907;51.368;6.730;2023-02-01T10:21:50;7.60;99.90
15615;DHT22;7907;51.368;6.730;2023-02-01T10:27:19;7.70;99.90
15615;DHT22;7907;51.368;6.730;2023-02-01T10:29:53;7.70;99.90
15615;DHT22;7907;51.368;6.730;2023-02-01T10:32:29;7.80;99.90
15615;DHT22;7907;51.368;6.730;2023-02-01T10:35:10;7.90;99.90
15615;DHT22;7907;51.368;6.730;2023-02-01T10:37:44;8.00;99.90
15615;DHT22;7907;51.368;6.730;2023-02-01T10:40:20;7.90;99.90
15615;DHT22;7907;51.368;6.730;2023-02-01T10:42:52;7.90;99.90
15615;DHT22;7907;51.368;6.730;2023-02-01T10:45:24;7.90;99.90
15615;DHT22;7907;51.368;6.730;2023-02-01T10:48:13;7.80;99.90
15615;DHT22;7907;51.368;6.730;2023-02-01T10:51:02;7.90;99.90
15615;DHT22;7907;51.368;6.730;2023-02-01T10:53:35;7.90;99.90
15615;DHT22;7907;51.368;6.730;2023-02-01T10:56:06;7.90;99.90
15615;DHT22;7907;51.368;6.730;2023-02-01T10:58:51;8.00;99.90
15615;DHT22;7907;51.368;6.730;2023-02-01T11:01:23;8.00;99.90
15615;DHT22;7907;51.368;6.730;2023-02-01T11:03:53;8.10;99.90
15615;DHT22;7907;51.368;6.730;2023-02-01T11:06:29;8.10;99.90
15615;DHT22;7907;51.368;6.730;2023-02-01T11:09:01;8.30;99.90
15615;DHT22;7907;51.368;6.730;2023-02-01T11:11:59;8.30;99.90
15615;DHT22;7907;51.368;6.730;2023-02-01T11:14:38;8.30;99.90
15615;DHT22;7907;51.368;6.730;2023-02-01T11:17:33;8.40;99.90
15615;DHT22;7907;51.368;6.730;2023-02-01T11:20:15;8.40;99.90
15615;DHT22;7907;51.368;6.730;2023-02-01T11:22:57;8.50;99.90
15615;DHT22;7907;51.368;6.730;2023-02-01T11:25:25;8.40;99.90
15615;DHT22;7907;51.368;6.730;2023-02-01T11:27:54;8.50;99.90
15615;DHT22;7907;51.368;6.730;2023-02-01T11:30:31;8.50;99.90
15615;DHT22;7907;51.368;6.730;2023-02-01T11:33:03;8.40;99.90
15615;DHT22;7907;51.368;6.730;2023-02-01T11:35:31;8.40;99.90
15615;DHT22;7907;51.368;6.730;2023-02-01T11:38:00;8.40;99.90
15615;DHT22;7907;51.368;6.730;2023-02-01T11:40:38;8.40;99.90
15615;DHT22;7907;51.368;6.730;2023-02-01T11:43:15;8.40;99.90
15615;DHT22;7907;51.368;6.730;2023-02-01T11:45:54;8.40;99.90
15615;DHT22;7907;51.368;6.730;2023-02-01T11:48:24;8.40;99.90
15615;DHT22;7907;51.368;6.730;2023-02-01T11:54:05;8.40;99.90
15615;DHT22;7907;51.368;6.730;2023-02-01T11:56:37;8.30;99.90
15615;DHT22;7907;51.368;6.730;2023-02-01T11:59:25;8.30;99.90
15615;DHT22;7907;51.368;6.730;2023-02-01T12:02:21;8.30;99.90
15615;DHT22;7907;51.368;6.730;2023-02-01T12:05:22;8.30;99.90
15615;DHT22;7907;51.368;6.730;2023-02-01T12:08:15;8.20;99.90
15615;DHT22;7907;51.368;6.730;2023-02-01T12:10:58;8.30;99.90
15615;DHT22;7907;51.368;6.730;2023-02-01T12:13:41;8.40;99.90
15615;DHT22;7907;51.368;6.730;2023-02-01T12:16:22;8.40;99.90
15615;DHT22;7907;51.368;6.730;2023-02-01T12:19:14;8.40;99.90
15615;DHT22;7907;51.368;6.730;2023-02-01T12:25:09;8.40;99.90
15615;DHT22;7907;51.368;6.730;2023-02-01T12:27:49;8.40;99.90
15615;DHT22;7907;51.368;6.730;2023-02-01T12:30:53;8.50;99.90
15615;DHT22;7907;51.368;6.730;2023-02-01T12:33:35;8.30;99.90
15615;DHT22;7907;51.368;6.730;2023-02-01T12:36:21;8.40;99.90
15615;DHT22;7907;51.368;6.730;2023-02-01T12:39:00;8.30;99.90
15615;DHT22;7907;51.368;6.730;2023-02-01T12:41:47;8.40;99.90
15615;DHT22;7907;51.368;6.730;2023-02-01T12:44:25;8.40;99.90
15615;DHT22;7907;51.368;6.730;2023-02-01T12:46:57;8.40;99.90
15615;DHT22;7907;51.368;6.730;2023-02-01T12:49:32;8.40;99.90
15615;DHT22;7907;51.368;6.730;2023-02-01T12:52:06;8.40;99.90
15615;DHT22;7907;51.368;6.730;2023-02-01T12:54:41;8.40;99.90
15615;DHT22;7907;51.368;6.730;2023-02-01T12:57:18;8.40;99.90
15615;DHT22;7907;51.368;6.730;2023-02-01T12:59:54;8.40;99.90
15615;DHT22;7907;51.368;6.730;2023-02-01T13:02:32;8.50;99.90
15615;DHT22;7907;51.368;6.730;2023-02-01T13:05:13;8.50;99.90
15615;DHT22;7907;51.368;6.730;2023-02-01T13:07:47;8.50;99.90
15615;DHT22;7907;51.368;6.730;2023-02-01T13:10:22;8.50;99.90
15615;DHT22;7907;51.368;6.730;2023-02-01T13:12:56;8.50;99.90
15615;DHT22;7907;51.368;6.730;2023-02-01T13:15:28;8.50;99.90
15615;DHT22;7907;51.368;6.730;2023-02-01T13:18:25;8.50;99.90
15615;DHT22;7907;51.368;6.730;2023-02-01T13:21:17;8.50;99.90
15615;DHT22;7907;51.368;6.730;2023-02-01T13:23:53;8.50;99.90
15615;DHT22;7907;51.368;6.730;2023-02-01T13:29:26;8.50;99.90
15615;DHT22;7907;51.368;6.730;2023-02-01T13:32:30;8.60;99.90
15615;DHT22;7907;51.368;6.730;2023-02-01T13:35:32;8.60;99.90
15615;DHT22;7907;51.368;6.730;2023-02-01T13:41:19;8.70;99.90
15615;DHT22;7907;51.368;6.730;2023-02-01T13:43:55;8.70;99.90
15615;DHT22;7907;51.368;6.730;2023-02-01T13:46:41;8.60;99.90
15615;DHT22;7907;51.368;6.730;2023-02-01T13:49:27;8.70;99.90
15615;DHT22;7907;51.368;6.730;2023-02-01T13:52:33;8.80;99.90
15615;DHT22;7907;51.368;6.730;2023-02-01T13:58:37;8.80;99.90
15615;DHT22;7907;51.368;6.730;2023-02-01T14:04:52;9.00;99.90
15615;DHT22;7907;51.368;6.730;2023-02-01T14:07:22;9.10;99.90
15615;DHT22;7907;51.368;6.730;2023-02-01T14:13:05;9.10;99.90
15615;DHT22;7907;51.368;6.730;2023-02-01T14:19:07;9.10;99.90
15615;DHT22;7907;51.368;6.730;2023-02-01T14:21:51;9.10;99.90
15615;DHT22;7907;51.368;6.730;2023-02-01T14:25:01;9.10;99.90
15615;DHT22;7907;51.368;6.730;2023-02-01T14:27:40;9.10;99.90
15615;DHT22;7907;51.368;6.730;2023-02-01T14:30:19;9.20;99.90
15615;DHT22;7907;51.368;6.730;2023-02-01T14:32:57;9.10;99.90
15615;DHT22;7907;51.368;6.730;2023-02-01T14:35:28;9.20;99.90
15615;DHT22;7907;51.368;6.730;2023-02-01T14:38:00;9.20;99.90
15615;DHT22;7907;51.368;6.730;2023-02-01T14:40:30;9.20;99.90
15615;DHT22;7907;51.368;6.730;2023-02-01T14:43:07;9.20;99.90
15615;DHT22;7907;51.368;6.730;2023-02-01T14:45:50;9.20;99.90
15615;DHT22;7907;51.368;6.730;2023-02-01T14:48:47;9.20;99.90
15615;DHT22;7907;51.368;6.730;2023-02-01T14:51:27;9.30;99.90
15615;DHT22;7907;51.368;6.730;2023-02-01T14:53:58;9.30;99.90
15615;DHT22;7907;51.368;6.730;2023-02-01T14:56:36;9.30;99.90
15615;DHT22;7907;51.368;6.730;2023-02-01T14:59:22;9.30;99.90
15615;DHT22;7907;51.368;6.730;2023-02-01T15:01:57;9.20;99.90
15615;DHT22;7907;51.368;6.730;2023-02-01T15:04:41;9.20;99.90
15615;DHT22;7907;51.368;6.730;2023-02-01T15:07:18;9.30;99.90
15615;DHT22;7907;51.368;6.730;2023-02-01T15:09:49;9.20;99.90
15615;DHT22;7907;51.368;6.730;2023-02-01T15:12:28;9.20;99.90
15615;DHT22;7907;51.368;6.730;2023-02-01T15:15:20;9.20;99.90
15615;DHT22;7907;51.368;6.730;2023-02-01T15:18:00;9.20;99.90
15615;DHT22;7907;51.368;6.730;2023-02-01T15:20:40;9.20;99.90
15615;DHT22;7907;51.368;6.730;2023-02-01T15:23:21;9.30;99.90
15615;DHT22;7907;51.368;6.730;2023-02-01T15:26:04;9.20;99.90
15615;DHT22;7907;51.368;6.730;2023-02-01T15:28:45;9.20;99.90
15615;DHT22;7907;51.368;6.730;2023-02-01T15:31:15;9.20;99.90
15615;DHT22;7907;51.368;6.730;2023-02-01T15:33:58;9.20;99.90
15615;DHT22;7907;51.368;6.730;2023-02-01T15:36:37;9.30;99.90
15615;DHT22;7907;51.368;6.730;2023-02-01T15:39:22;9.20;99.90
15615;DHT22;7907;51.368;6.730;2023-02-01T15:42:10;9.20;99.90
15615;DHT22;7907;51.368;6.730;2023-02-01T15:44:52;9.20;99.90
15615;DHT22;7907;51.368;6.730;2023-02-01T15:47:30;9.20;99.90
15615;DHT22;7907;51.368;6.730;2023-02-01T15:50:01;9.20;99.90
15615;DHT22;7907;51.368;6.730;2023-02-01T15:52:52;9.20;99.90
15615;DHT22;7907;51.368;6.730;2023-02-01T15:55:36;9.20;99.90
15615;DHT22;7907;51.368;6.730;2023-02-01T15:58:21;9.10;99.90
15615;DHT22;7907;51.368;6.730;2023-02-01T16:01:06;9.10;99.90
15615;DHT22;7907;51.368;6.730;2023-02-01T16:03:42;9.10;99.90
15615;DHT22;7907;51.368;6.730;2023-02-01T16:06:45;9.10;99.90
15615;DHT22;7907;51.368;6.730;2023-02-01T16:09:36;9.00;99.90
15615;DHT22;7907;51.368;6.730;2023-02-01T16:12:31;9.00;99.90
15615;DHT22;7907;51.368;6.730;2023-02-01T16:15:04;9.00;99.90
15615;DHT22;7907;51.368;6.730;2023-02-01T16:17:42;9.00;99.90
15615;DHT22;7907;51.368;6.730;2023-02-01T16:20:16;8.90;99.90
15615;DHT22;7907;51.368;6.730;2023-02-01T16:22:48;8.90;99.90
15615;DHT22;7907;51.368;6.730;2023-02-01T16:25:22;8.90;99.90
15615;DHT22;7907;51.368;6.730;2023-02-01T16:27:54;8.80;99.90
15615;DHT22;7907;51.368;6.730;2023-02-01T16:30:22;8.80;99.90
15615;DHT22;7907;51.368;6.730;2023-02-01T16:33:06;8.90;99.90
15615;DHT22;7907;51.368;6.730;2023-02-01T16:36:08;8.90;99.90
15615;DHT22;7907;51.368;6.730;2023-02-01T16:38:47;8.80;99.90
15615;DHT22;7907;51.368;6.730;2023-02-01T16:41:20;8.80;99.90
15615;DHT22;7907;51.368;6.730;2023-02-01T16:43:56;8.80;99.90
15615;DHT22;7907;51.368;6.730;2023-02-01T16:46:42;8.80;99.90
15615;DHT22;7907;51.368;6.730;2023-02-01T16:55:59;8.80;99.90
15615;DHT22;7907;51.368;6.730;2023-02-01T16:58:29;8.90;99.90
15615;DHT22;7907;51.368;6.730;2023-02-01T17:00:57;8.90;99.90
15615;DHT22;7907;51.368;6.730;2023-02-01T17:03:57;8.90;99.90
15615;DHT22;7907;51.368;6.730;2023-02-01T17:06:32;8.90;99.90
15615;DHT22;7907;51.368;6.730;2023-02-01T17:09:37;8.90;99.90
15615;DHT22;7907;51.368;6.730;2023-02-01T17:15:03;8.90;99.90
15615;DHT22;7907;51.368;6.730;2023-02-01T17:15:18;8.90;99.90
15615;DHT22;7907;51.368;6.730;2023-02-01T17:17:46;9.00;99.90
15615;DHT22;7907;51.368;6.730;2023-02-01T17:20:30;8.90;99.90
15615;DHT22;7907;51.368;6.730;2023-02-01T17:23:00;8.90;99.90
15615;DHT22;7907;51.368;6.730;2023-02-01T17:25:30;8.90;99.90
15615;DHT22;7907;51.368;6.730;2023-02-01T17:28:04;8.90;99.90
15615;DHT22;7907;51.368;6.730;2023-02-01T17:30:32;8.80;99.90
15615;DHT22;7907;51.368;6.730;2023-02-01T17:36:15;8.80;99.90
15615;DHT22;7907;51.368;6.730;2023-02-01T17:38:50;8.90;99.90
15615;DHT22;7907;51.368;6.730;2023-02-01T17:41:50;8.90;99.90
15615;DHT22;7907;51.368;6.730;2023-02-01T17:44:28;8.90;99.90
15615;DHT22;7907;51.368;6.730;2023-02-01T17:47:31;8.90;99.90
15615;DHT22;7907;51.368;6.730;2023-02-01T17:50:18;8.90;99.90
15615;DHT22;7907;51.368;6.730;2023-02-01T17:52:50;8.90;99.90
15615;DHT22;7907;51.368;6.730;2023-02-01T17:58:27;9.00;99.90
15615;DHT22;7907;51.368;6.730;2023-02-01T18:01:01;9.10;99.90
15615;DHT22;7907;51.368;6.730;2023-02-01T18:03:37;9.10;99.90
15615;DHT22;7907;51.368;6.730;2023-02-01T18:06:09;9.10;99.90
15615;DHT22;7907;51.368;6.730;2023-02-01T18:08:55;9.00;99.90
15615;DHT22;7907;51.368;6.730;2023-02-01T18:11:43;9.00;99.90
15615;DHT22;7907;51.368;6.730;2023-02-01T18:14:19;8.90;99.90
15615;DHT22;7907;51.368;6.730;2023-02-01T18:16:49;8.90;99.90
15615;DHT22;7907;51.368;6.730;2023-02-01T18:19:23;8.80;99.90
15615;DHT22;7907;51.368;6.730;2023-02-01T18:21:54;8.80;99.90
15615;DHT22;7907;51.368;6.730;2023-02-01T18:24:22;8.80;99.90
15615;DHT22;7907;51.368;6.730;2023-02-01T18:26:53;8.80;99.90
15615;DHT22;7907;51.368;6.730;2023-02-01T18:29:33;8.80;99.90
15615;DHT22;7907;51.368;6.730;2023-02-01T18:32:08;8.80;99.90
15615;DHT22;7907;51.368;6.730;2023-02-01T18:34:37;8.80;99.90
15615;DHT22;7907;51.368;6.730;2023-02-01T18:37:08;8.80;99.90
15615;DHT22;7907;51.368;6.730;2023-02-01T18:39:37;8.80;99.90
15615;DHT22;7907;51.368;6.730;2023-02-01T18:42:08;8.80;99.90
15615;DHT22;7907;51.368;6.730;2023-02-01T18:44:36;8.80;99.90
15615;DHT22;7907;51.368;6.730;2023-02-01T18:56:01;8.80;99.90
15615;DHT22;7907;51.368;6.730;2023-02-01T18:58:35;8.80;99.90
15615;DHT22;7907;51.368;6.730;2023-02-01T19:01:41;8.80;99.90
15615;DHT22;7907;51.368;6.730;2023-02-01T19:07:51;8.80;99.90
15615;DHT22;7907;51.368;6.730;2023-02-01T19:10:36;8.80;99.90
15615;DHT22;7907;51.368;6.730;2023-02-01T19:13:05;8.90;99.90
15615;DHT22;7907;51.368;6.730;2023-02-01T19:18:51;8.80;99.90